createdAt,value
2022-09-13T00:01:23.750Z,8.95
2022-09-13T00:04:13.383Z,5.38
2022-09-13T00:07:01.654Z,6.25
2022-09-13T00:09:49.909Z,8.07
2022-09-13T00:12:38.127Z,9.35
2022-09-13T00:15:26.685Z,9.95
2022-09-13T00:18:15.445Z,5.65
2022-09-13T00:21:10.243Z,6.35
2022-09-13T00:24:00.434Z,10.52
2022-09-13T00:26:49.157Z,7.60
2022-09-13T00:29:38.825Z,8.20
2022-09-13T00:32:27.427Z,8.75
2022-09-13T00:35:15.673Z,8.45
2022-09-13T00:38:05.210Z,9.95
2022-09-13T00:40:53.449Z,6.85
2022-09-13T00:43:46.277Z,6.78
2022-09-13T00:46:39.045Z,8.82
2022-09-13T00:49:32.989Z,14.20
2022-09-13T00:52:26.900Z,10.77
2022-09-13T00:55:21.676Z,7.60
2022-09-13T00:58:14.252Z,9.38
2022-09-13T01:01:04.880Z,6.60
2022-09-13T01:03:53.175Z,8.35
2022-09-13T01:06:43.643Z,8.48
2022-09-13T01:09:36.257Z,7.65
2022-09-13T01:12:34.609Z,10.88
2022-09-13T01:15:23.435Z,8.52
2022-09-13T01:18:13.013Z,6.32
2022-09-13T01:21:33.187Z,9.65
2022-09-13T01:24:56.212Z,7.20
2022-09-13T01:28:08.003Z,8.43
2022-09-13T01:31:02.954Z,8.25
2022-09-13T01:34:04.165Z,9.77
2022-09-13T01:37:07.193Z,6.43
2022-09-13T01:40:05.936Z,9.25
2022-09-13T01:43:12.664Z,6.30
2022-09-13T01:46:09.073Z,7.10
2022-09-13T01:49:01.803Z,9.60
2022-09-13T01:51:55.480Z,8.23
2022-09-13T01:54:52.589Z,8.23
2022-09-13T01:57:47.869Z,5.45
2022-09-13T02:00:42.622Z,9.43
2022-09-13T02:03:40.230Z,6.22
2022-09-13T02:06:31.897Z,9.20
2022-09-13T02:09:23.033Z,6.32
2022-09-13T02:12:19.497Z,12.40
2022-09-13T02:15:13.409Z,7.05
2022-09-13T02:18:07.172Z,7.07
2022-09-13T02:21:01.968Z,6.93
2022-09-13T02:23:53.412Z,5.50
2022-09-13T02:26:46.650Z,7.20
2022-09-13T02:29:38.616Z,9.52
2022-09-13T02:32:31.309Z,7.10
2022-09-13T02:35:23.677Z,6.28
2022-09-13T02:38:18.740Z,6.20
2022-09-13T02:41:15.492Z,12.57
2022-09-13T02:44:10.353Z,7.40
2022-09-13T02:47:12.080Z,7.90
2022-09-13T02:50:11.287Z,9.35
2022-09-13T02:53:06.811Z,7.30
2022-09-13T02:56:04.758Z,5.82
2022-09-13T02:58:58.005Z,6.88
2022-09-13T03:01:50.444Z,4.90
2022-09-13T03:04:38.695Z,7.68
2022-09-13T03:07:27.569Z,5.55
2022-09-13T03:10:17.037Z,6.03
2022-09-13T03:13:23.434Z,6.82
2022-09-13T03:16:26.478Z,8.85
2022-09-13T03:19:31.020Z,7.53
2022-09-13T03:22:37.543Z,6.72
2022-09-13T03:25:34.172Z,10.98
2022-09-13T03:28:34.376Z,7.80
2022-09-13T03:31:31.275Z,6.72
2022-09-13T03:34:31.139Z,9.38
2022-09-13T03:37:26.589Z,4.45
2022-09-13T03:40:19.168Z,6.95
2022-09-13T03:43:13.453Z,6.38
2022-09-13T03:46:06.191Z,7.40
2022-09-13T03:48:55.690Z,6.25
2022-09-13T03:51:45.797Z,10.07
2022-09-13T03:54:38.299Z,5.97
2022-09-13T03:57:27.094Z,11.23
2022-09-13T04:00:18.113Z,6.50
2022-09-13T04:03:08.940Z,8.88
2022-09-13T04:05:57.170Z,11.65
2022-09-13T04:08:45.676Z,10.02
2022-09-13T04:11:33.972Z,10.27
2022-09-13T04:14:26.384Z,8.55
2022-09-13T04:17:15.491Z,9.15
2022-09-13T04:20:06.703Z,7.88
2022-09-13T04:22:57.501Z,10.70
2022-09-13T04:25:46.212Z,10.90
2022-09-13T04:28:34.489Z,10.10
2022-09-13T04:31:22.780Z,11.10
2022-09-13T04:34:11.046Z,12.02
2022-09-13T04:37:00.632Z,8.98
2022-09-13T04:39:49.296Z,11.30
2022-09-13T04:42:38.420Z,12.75
2022-09-13T04:45:27.128Z,16.63
2022-09-13T04:48:16.347Z,12.52
2022-09-13T04:51:06.228Z,12.00
2022-09-13T04:53:58.244Z,13.02
2022-09-13T04:56:49.474Z,12.20
2022-09-13T04:59:38.793Z,10.73
2022-09-13T05:02:30.195Z,11.23
2022-09-13T05:05:19.934Z,10.57
2022-09-13T05:08:09.527Z,15.63
2022-09-13T05:10:59.235Z,12.52
2022-09-13T05:13:52.852Z,12.13
2022-09-13T05:16:41.562Z,11.80
2022-09-13T05:19:29.804Z,13.07
2022-09-13T05:22:18.133Z,12.30
2022-09-13T05:25:07.698Z,12.02
2022-09-13T05:27:57.271Z,12.88
2022-09-13T05:30:45.765Z,7.97
2022-09-13T05:33:36.416Z,13.25
2022-09-13T05:36:26.487Z,10.90
2022-09-13T05:39:33.563Z,14.05
2022-09-13T05:42:26.737Z,9.98
2022-09-13T05:45:16.518Z,11.70
2022-09-13T05:48:05.535Z,11.15
2022-09-13T05:50:58.541Z,12.23
2022-09-13T05:53:50.404Z,13.77
2022-09-13T05:56:38.755Z,14.60
2022-09-13T05:59:27.048Z,12.60
2022-09-13T06:02:16.697Z,8.80
2022-09-13T06:05:06.301Z,12.35
2022-09-13T06:07:55.098Z,9.45
2022-09-13T06:10:44.147Z,12.75
2022-09-13T06:13:33.510Z,10.70
2022-09-13T06:16:22.222Z,11.02
2022-09-13T06:19:12.353Z,14.07
2022-09-13T06:22:01.372Z,12.43
2022-09-13T06:24:49.645Z,12.15
2022-09-13T06:27:38.755Z,12.38
2022-09-13T06:30:28.833Z,10.15
2022-09-13T06:33:18.273Z,13.30
2022-09-13T06:36:10.222Z,11.57
2022-09-13T06:39:00.614Z,8.05
2022-09-13T06:41:50.142Z,13.20
2022-09-13T06:44:45.853Z,7.38
2022-09-13T06:47:34.267Z,10.20
2022-09-13T06:50:22.987Z,8.05
2022-09-13T06:53:13.429Z,13.88
2022-09-13T06:56:04.112Z,11.75
2022-09-13T06:58:56.854Z,12.32
2022-09-13T07:01:46.737Z,13.20
2022-09-13T07:04:35.105Z,9.27
2022-09-13T07:07:23.494Z,13.73
2022-09-13T07:10:13.522Z,12.50
2022-09-13T07:13:03.334Z,8.63
2022-09-13T07:15:51.730Z,9.02
2022-09-13T07:18:40.049Z,9.98
2022-09-13T07:21:29.177Z,12.00
2022-09-13T07:24:18.029Z,13.57
2022-09-13T07:27:08.708Z,8.73
2022-09-13T07:29:57.812Z,14.70
2022-09-13T07:32:46.057Z,16.70
2022-09-13T07:35:35.194Z,11.18
2022-09-13T07:38:24.039Z,10.60
2022-09-13T07:41:14.489Z,10.43
2022-09-13T07:44:06.414Z,12.10
2022-09-13T07:46:55.166Z,9.93
2022-09-13T07:49:44.275Z,9.02
2022-09-13T07:52:36.398Z,9.38
2022-09-13T07:55:30.816Z,7.05
2022-09-13T07:58:20.050Z,8.40
2022-09-13T08:01:13.056Z,9.30
2022-09-13T08:04:03.522Z,8.52
2022-09-13T08:06:51.973Z,11.07
2022-09-13T08:09:40.603Z,13.38
2022-09-13T08:12:28.928Z,10.82
2022-09-13T08:15:18.707Z,10.02
2022-09-13T08:18:08.867Z,9.43
2022-09-13T08:20:59.024Z,6.07
2022-09-13T08:23:47.257Z,7.63
2022-09-13T08:26:37.498Z,7.57
2022-09-13T08:29:28.500Z,8.15
2022-09-13T08:32:17.433Z,7.45
2022-09-13T08:35:09.917Z,11.45
2022-09-13T08:37:58.405Z,6.97
2022-09-13T08:40:51.113Z,4.85
2022-09-13T08:43:50.056Z,6.55
2022-09-13T08:46:41.261Z,6.07
2022-09-13T08:49:35.827Z,9.48
2022-09-13T08:52:32.358Z,6.78
2022-09-13T08:55:27.761Z,4.43
2022-09-13T08:58:34.181Z,6.97
2022-09-13T09:01:36.187Z,6.93
2022-09-13T09:04:38.967Z,5.63
2022-09-13T09:07:33.698Z,4.43
2022-09-13T09:10:25.252Z,3.53
2022-09-13T09:13:24.264Z,3.70
2022-09-13T09:16:26.385Z,6.07
2022-09-13T09:19:21.213Z,3.42
2022-09-13T09:22:17.766Z,3.30
2022-09-13T09:25:11.836Z,3.80
2022-09-13T09:28:00.940Z,3.67
2022-09-13T09:31:04.136Z,3.25
2022-09-13T09:34:05.154Z,1.73
2022-09-13T09:37:01.445Z,2.78
2022-09-13T09:39:51.167Z,4.20
2022-09-13T09:42:43.910Z,2.92
2022-09-13T09:45:35.323Z,2.40
2022-09-13T09:48:29.112Z,2.45
2022-09-13T09:51:20.344Z,1.67
2022-09-13T09:54:09.588Z,4.50
2022-09-13T09:56:57.880Z,2.90
2022-09-13T09:59:48.459Z,1.20
2022-09-13T10:02:43.626Z,2.45
2022-09-13T10:05:33.295Z,1.83
2022-09-13T10:08:30.477Z,1.92
2022-09-13T10:11:22.203Z,1.60
2022-09-13T10:14:30.480Z,5.05
2022-09-13T10:17:25.011Z,2.42
2022-09-13T10:20:27.556Z,2.15
2022-09-13T10:23:22.011Z,1.90
2022-09-13T10:26:13.269Z,2.42
2022-09-13T10:29:15.209Z,1.90
2022-09-13T10:32:12.998Z,1.55
2022-09-13T10:35:08.824Z,4.78
2022-09-13T10:37:57.281Z,2.22
2022-09-13T10:40:49.247Z,2.47
2022-09-13T10:43:39.164Z,1.67
2022-09-13T10:46:31.834Z,3.35
2022-09-13T10:49:41.433Z,1.50
2022-09-13T10:52:35.158Z,2.00
2022-09-13T10:55:55.040Z,1.90
2022-09-13T10:58:43.433Z,3.08
2022-09-13T11:01:45.546Z,7.75
2022-09-13T11:05:06.847Z,2.17
2022-09-13T11:08:12.778Z,4.00
2022-09-13T11:11:10.699Z,2.10
2022-09-13T11:14:13.983Z,8.38
2022-09-13T11:17:16.570Z,2.50
2022-09-13T11:20:18.344Z,2.15
2022-09-13T11:23:29.821Z,2.25
2022-09-13T11:26:34.995Z,2.30
2022-09-13T11:29:47.511Z,2.30
2022-09-13T11:32:52.868Z,3.10
2022-09-13T11:35:55.404Z,8.00
2022-09-13T11:38:59.474Z,2.17
2022-09-13T11:41:59.351Z,2.65
2022-09-13T11:45:14.697Z,1.77
2022-09-13T11:48:33.893Z,3.10
2022-09-13T11:51:29.937Z,2.45
2022-09-13T11:54:32.298Z,4.07
2022-09-13T11:57:26.544Z,2.22
2022-09-13T12:00:25.987Z,1.42
2022-09-13T12:03:23.191Z,2.00
2022-09-13T12:06:17.220Z,3.80
2022-09-13T12:09:12.448Z,3.00
2022-09-13T12:12:06.777Z,1.42
2022-09-13T12:15:04.015Z,3.50
2022-09-13T12:17:57.276Z,1.30
2022-09-13T12:20:51.446Z,1.77
2022-09-13T12:23:44.535Z,2.25
2022-09-13T12:26:39.905Z,1.88
2022-09-13T12:29:37.865Z,2.58
2022-09-13T12:32:29.305Z,2.72
2022-09-13T12:35:25.474Z,1.40
2022-09-13T12:38:31.433Z,1.85
2022-09-13T12:41:32.567Z,1.88
2022-09-13T12:44:57.352Z,1.88
2022-09-13T12:48:07.879Z,2.08
2022-09-13T12:51:08.811Z,3.50
2022-09-13T12:54:19.171Z,1.92
2022-09-13T12:57:28.137Z,1.83
2022-09-13T13:00:28.394Z,4.38
2022-09-13T13:03:19.438Z,2.45
2022-09-13T13:05:51.536Z,2.80
2022-09-13T13:08:29.322Z,2.25
2022-09-13T13:11:07.859Z,2.60
2022-09-13T13:13:38.878Z,1.63
2022-09-13T13:16:25.940Z,1.60
2022-09-13T13:18:55.017Z,3.22
2022-09-13T13:21:34.929Z,2.17
2022-09-13T13:24:40.508Z,1.80
2022-09-13T13:27:37.861Z,1.90
2022-09-13T13:30:43.289Z,2.10
2022-09-13T13:33:22.897Z,4.05
2022-09-13T13:35:51.124Z,1.75
2022-09-13T13:38:48.528Z,3.15
2022-09-13T13:41:45.640Z,2.15
2022-09-13T13:44:51.149Z,2.28
2022-09-13T13:48:03.605Z,2.25
2022-09-13T13:50:36.237Z,2.63
2022-09-13T13:53:23.499Z,3.15
2022-09-13T13:56:23.885Z,2.38
2022-09-13T13:58:56.617Z,2.75
2022-09-13T14:01:30.901Z,2.38
2022-09-13T14:04:31.514Z,2.40
2022-09-13T14:07:19.532Z,2.60
2022-09-13T14:09:54.855Z,2.25
2022-09-13T14:12:34.192Z,4.70
2022-09-13T14:15:31.433Z,1.92
2022-09-13T14:18:35.072Z,1.90
2022-09-13T14:21:19.194Z,1.85
2022-09-13T14:23:50.385Z,2.60
2022-09-13T14:26:22.287Z,4.20
2022-09-13T14:28:51.349Z,2.58
2022-09-13T14:31:23.040Z,3.17
2022-09-13T14:33:53.087Z,3.65
2022-09-13T14:36:22.901Z,1.95
2022-09-13T14:38:55.679Z,2.10
2022-09-13T14:41:32.455Z,4.60
2022-09-13T14:44:23.800Z,3.00
2022-09-13T14:47:05.012Z,2.28
2022-09-13T14:49:37.132Z,2.20
2022-09-13T14:52:12.664Z,2.80
2022-09-13T14:54:48.494Z,4.00
2022-09-13T14:57:24.614Z,3.28
2022-09-13T14:59:57.087Z,2.15
2022-09-13T15:02:27.585Z,2.42
2022-09-13T15:04:58.375Z,1.98
2022-09-13T15:07:32.256Z,2.40
2022-09-13T15:10:17.968Z,2.33
2022-09-13T15:12:54.952Z,3.15
2022-09-13T15:15:39.269Z,2.53
2022-09-13T15:18:25.967Z,2.40
2022-09-13T15:20:58.107Z,3.00
2022-09-13T15:23:29.030Z,2.33
2022-09-13T15:26:02.643Z,4.28
2022-09-13T15:28:33.791Z,2.42
2022-09-13T15:31:03.357Z,2.58
2022-09-13T15:33:35.382Z,3.72
2022-09-13T15:36:30.293Z,2.63
2022-09-13T15:39:03.574Z,2.10
2022-09-13T15:41:35.407Z,4.93
2022-09-13T15:44:07.107Z,2.28
2022-09-13T15:46:45.403Z,2.85
2022-09-13T15:49:17.800Z,3.38
2022-09-13T15:51:46.367Z,3.20
2022-09-13T15:54:16.643Z,2.58
2022-09-13T15:56:48.447Z,2.95
2022-09-13T15:59:22.338Z,2.65
2022-09-13T16:01:52.290Z,3.25
2022-09-13T16:04:20.919Z,4.75
2022-09-13T16:06:48.898Z,3.15
2022-09-13T16:09:20.039Z,3.20
2022-09-13T16:11:50.913Z,3.53
2022-09-13T16:14:19.645Z,4.90
2022-09-13T16:16:49.024Z,2.70
2022-09-13T16:19:20.004Z,4.65
2022-09-13T16:21:47.993Z,3.22
2022-09-13T16:24:16.234Z,3.15
2022-09-13T16:26:44.852Z,2.28
2022-09-13T16:29:14.527Z,3.47
2022-09-13T16:31:42.479Z,3.25
2022-09-13T16:34:13.695Z,4.93
2022-09-13T16:36:43.583Z,3.22
2022-09-13T16:39:16.513Z,4.80
2022-09-13T16:41:44.596Z,3.00
2022-09-13T16:44:14.417Z,3.67
2022-09-13T16:46:43.042Z,5.63
2022-09-13T16:49:11.481Z,3.75
2022-09-13T16:51:41.760Z,2.65
2022-09-13T16:54:09.746Z,2.58
2022-09-13T16:56:38.072Z,6.90
2022-09-13T16:59:05.952Z,4.65
2022-09-13T17:01:35.628Z,2.75
2022-09-13T17:04:04.480Z,3.67
2022-09-13T17:06:35.233Z,3.22
2022-09-13T17:09:06.404Z,5.07
2022-09-13T17:11:40.014Z,2.65
2022-09-13T17:14:11.017Z,2.60
2022-09-13T17:16:49.139Z,3.42
2022-09-13T17:19:19.654Z,3.25
2022-09-13T17:21:59.573Z,3.40
2022-09-13T17:24:31.659Z,3.33
2022-09-13T17:27:00.227Z,3.00
2022-09-13T17:29:30.871Z,3.38
2022-09-13T17:32:02.132Z,6.30
2022-09-13T17:34:34.683Z,2.75
2022-09-13T17:37:06.509Z,3.10
2022-09-13T17:39:34.471Z,5.20
2022-09-13T17:42:02.535Z,5.32
2022-09-13T17:44:31.303Z,3.20
2022-09-13T17:47:03.094Z,4.53
2022-09-13T17:49:33.356Z,6.03
2022-09-13T17:52:05.767Z,4.68
2022-09-13T17:54:34.998Z,4.90
2022-09-13T17:57:03.723Z,4.85
2022-09-13T17:59:34.489Z,5.57
2022-09-13T18:02:03.955Z,2.97
2022-09-13T18:04:34.364Z,3.90
2022-09-13T18:07:04.906Z,6.88
2022-09-13T18:09:38.199Z,7.40
2022-09-13T18:12:06.582Z,9.02
2022-09-13T18:14:35.522Z,4.15
2022-09-13T18:17:12.892Z,8.52
2022-09-13T18:19:46.389Z,4.72
2022-09-13T18:22:15.369Z,3.25
2022-09-13T18:24:48.849Z,3.70
2022-09-13T18:27:19.817Z,6.70
2022-09-13T18:29:48.216Z,3.72
2022-09-13T18:32:18.943Z,3.20
2022-09-13T18:34:49.651Z,3.83
2022-09-13T18:37:19.744Z,3.75
2022-09-13T18:39:47.788Z,7.72
2022-09-13T18:42:16.170Z,3.47
2022-09-13T18:44:44.729Z,5.50
2022-09-13T18:47:14.706Z,3.95
2022-09-13T18:49:44.563Z,3.08
2022-09-13T18:52:12.794Z,3.95
2022-09-13T18:54:40.738Z,4.63
2022-09-13T18:57:10.212Z,4.70
2022-09-13T18:59:40.315Z,5.88
2022-09-13T19:02:09.649Z,3.63
2022-09-13T19:04:38.487Z,5.20
2022-09-13T19:07:09.621Z,7.07
2022-09-13T19:09:39.453Z,4.07
2022-09-13T19:12:10.238Z,4.38
2022-09-13T19:14:38.279Z,3.88
2022-09-13T19:17:07.623Z,4.57
2022-09-13T19:19:36.617Z,4.00
2022-09-13T19:22:05.569Z,7.32
2022-09-13T19:24:37.152Z,4.53
2022-09-13T19:27:08.114Z,3.55
2022-09-13T19:29:37.056Z,4.82
2022-09-13T19:32:09.062Z,3.20
2022-09-13T19:34:47.421Z,3.35
2022-09-13T19:37:16.381Z,4.95
2022-09-13T19:39:47.395Z,8.57
2022-09-13T19:42:22.429Z,5.05
2022-09-13T19:44:54.727Z,4.25
2022-09-13T19:50:12.496Z,6.38
2022-09-13T19:52:41.708Z,6.03
2022-09-13T19:55:13.644Z,8.02
2022-09-13T19:57:44.944Z,6.15
2022-09-13T20:00:15.560Z,8.10
2022-09-13T20:02:43.822Z,7.10
2022-09-13T20:05:15.583Z,6.70
2022-09-13T20:07:45.899Z,7.13
2022-09-13T20:10:16.149Z,6.97
2022-09-13T20:12:45.323Z,6.97
2022-09-13T20:15:17.213Z,9.60
2022-09-13T20:17:45.607Z,9.18
2022-09-13T20:20:14.107Z,7.78
2022-09-13T20:22:42.046Z,6.90
2022-09-13T20:25:11.996Z,7.70
2022-09-13T20:27:42.863Z,6.50
2022-09-13T20:30:14.027Z,11.55
2022-09-13T20:32:42.019Z,7.85
2022-09-13T20:35:11.731Z,8.20
2022-09-13T20:37:41.418Z,6.88
2022-09-13T20:40:10.725Z,6.40
2022-09-13T20:42:39.655Z,10.52
2022-09-13T20:45:12.907Z,8.82
2022-09-13T20:47:40.835Z,10.50
2022-09-13T20:50:09.280Z,7.88
2022-09-13T20:52:37.219Z,13.10
2022-09-13T20:55:05.730Z,5.35
2022-09-13T20:57:34.082Z,5.28
2022-09-13T21:00:03.300Z,5.13
2022-09-13T21:02:32.726Z,8.35
2022-09-13T21:05:00.711Z,7.63
2022-09-13T21:08:00.839Z,6.95
2022-09-13T21:10:28.933Z,7.25
2022-09-13T21:12:57.020Z,5.47
2022-09-13T21:15:24.969Z,6.32
2022-09-13T21:17:54.498Z,7.47
2022-09-13T21:20:22.499Z,5.45
2022-09-13T21:22:50.439Z,5.00
2022-09-13T21:25:19.654Z,6.43
2022-09-13T21:27:47.559Z,5.72
2022-09-13T21:30:16.618Z,6.45
2022-09-13T21:32:44.537Z,6.95
2022-09-13T21:35:13.961Z,9.32
2022-09-13T21:37:42.962Z,8.27
2022-09-13T21:40:11.601Z,8.05
2022-09-13T21:42:39.549Z,5.28
2022-09-13T21:45:14.122Z,5.93
2022-09-13T21:47:42.022Z,7.30
2022-09-13T21:50:10.652Z,11.80
2022-09-13T21:52:40.551Z,5.72
2022-09-13T21:55:09.610Z,6.50
2022-09-13T21:57:37.524Z,7.80
2022-09-13T22:00:09.554Z,8.75
2022-09-13T22:02:41.165Z,9.88
2022-09-13T22:05:09.762Z,8.45
2022-09-13T22:07:37.689Z,11.98
2022-09-13T22:10:07.702Z,8.27
2022-09-13T22:12:35.977Z,15.18
2022-09-13T22:15:04.819Z,18.73
2022-09-13T22:17:33.914Z,5.25
2022-09-13T22:20:01.966Z,7.25
2022-09-13T22:22:30.320Z,10.13
2022-09-13T22:24:58.937Z,7.78
2022-09-13T22:27:28.336Z,7.25
2022-09-13T22:29:56.353Z,6.40
2022-09-13T22:32:26.573Z,6.60
2022-09-13T22:34:58.430Z,5.40
2022-09-13T22:37:26.364Z,4.43
2022-09-13T22:39:54.354Z,4.22
2022-09-13T22:42:22.343Z,4.15
2022-09-13T22:44:51.617Z,6.25
2022-09-13T22:47:20.346Z,5.30
2022-09-13T22:49:48.280Z,5.50
2022-09-13T22:52:16.206Z,7.30
2022-09-13T22:54:46.072Z,6.13
2022-09-13T22:57:14.304Z,4.45
2022-09-13T22:59:43.227Z,5.82
2022-09-13T23:02:12.769Z,5.85
2022-09-13T23:04:41.902Z,6.70
2022-09-13T23:07:10.185Z,10.60
2022-09-13T23:09:38.101Z,4.97
2022-09-13T23:12:06.332Z,4.35
2022-09-13T23:14:34.317Z,5.32
2022-09-13T23:17:02.504Z,5.35
2022-09-13T23:19:31.948Z,5.15
2022-09-13T23:21:59.862Z,5.32
2022-09-13T23:24:31.360Z,4.43
2022-09-13T23:27:01.539Z,5.07
2022-09-13T23:29:29.483Z,4.47
2022-09-13T23:31:57.482Z,6.32
2022-09-13T23:34:25.525Z,6.75
2022-09-13T23:36:54.984Z,6.43
2022-09-13T23:39:22.984Z,5.22
2022-09-13T23:41:52.093Z,5.78
2022-09-13T23:44:20.958Z,5.00
2022-09-13T23:46:49.247Z,10.27
2022-09-13T23:49:17.225Z,5.50
2022-09-13T23:51:45.184Z,5.63
2022-09-13T23:54:15.731Z,7.22
2022-09-13T23:56:44.723Z,7.18
2022-09-13T23:59:13.778Z,6.63
